sensor_id;sensor_type;location;lat;lon;timestamp;pressure;altitude;pressure_sealevel;temperature;humidity
60920;BME280;59039;52.108;19.942;2023-01-28T00:01:24;101412.38;;;0.61;84.37
60920;BME280;59039;52.108;19.942;2023-01-28T00:03:55;101416.38;;;0.59;84.53
60920;BME280;59039;52.108;19.942;2023-01-28T00:06:21;101419.95;;;0.59;84.69
60920;BME280;59039;52.108;19.942;2023-01-28T00:08:47;101421.38;;;0.59;85.01
60920;BME280;59039;52.108;19.942;2023-01-28T00:11:26;101419.25;;;0.59;84.98
60920;BME280;59039;52.108;19.942;2023-01-28T00:13:52;101420.70;;;0.58;85.46
60920;BME280;59039;52.108;19.942;2023-01-28T00:16:18;101419.14;;;0.57;84.93
60920;BME280;59039;52.108;19.942;2023-01-28T00:18:46;101419.08;;;0.58;84.91
60920;BME280;59039;52.108;19.942;2023-01-28T00:21:22;101415.33;;;0.59;85.01
60920;BME280;59039;52.108;19.942;2023-01-28T00:23:55;101414.00;;;0.60;85.00
60920;BME280;59039;52.108;19.942;2023-01-28T00:26:21;101411.47;;;0.61;85.26
60920;BME280;59039;52.108;19.942;2023-01-28T00:28:50;101412.47;;;0.63;85.23
60920;BME280;59039;52.108;19.942;2023-01-28T00:31:28;101414.36;;;0.64;85.14
60920;BME280;59039;52.108;19.942;2023-01-28T00:33:55;101407.65;;;0.67;85.12
60920;BME280;59039;52.108;19.942;2023-01-28T00:36:32;101410.88;;;0.71;85.12
60920;BME280;59039;52.108;19.942;2023-01-28T00:39:05;101415.46;;;0.72;85.28
60920;BME280;59039;52.108;19.942;2023-01-28T00:41:34;101416.88;;;0.72;85.13
60920;BME280;59039;52.108;19.942;2023-01-28T00:44:00;101418.14;;;0.72;84.92
60920;BME280;59039;52.108;19.942;2023-01-28T00:46:25;101419.88;;;0.69;85.20
60920;BME280;59039;52.108;19.942;2023-01-28T00:49:00;101419.92;;;0.68;85.20
60920;BME280;59039;52.108;19.942;2023-01-28T00:51:34;101419.91;;;0.69;85.17
60920;BME280;59039;52.108;19.942;2023-01-28T00:53:59;101424.09;;;0.71;85.29
60920;BME280;59039;52.108;19.942;2023-01-28T00:56:28;101424.20;;;0.72;85.37
60920;BME280;59039;52.108;19.942;2023-01-28T00:59:16;101424.69;;;0.73;85.51
60920;BME280;59039;52.108;19.942;2023-01-28T01:01:48;101419.67;;;0.74;85.29
60920;BME280;59039;52.108;19.942;2023-01-28T01:04:14;101422.48;;;0.74;85.47
60920;BME280;59039;52.108;19.942;2023-01-28T01:06:43;101420.51;;;0.75;85.31
60920;BME280;59039;52.108;19.942;2023-01-28T01:09:10;101420.29;;;0.76;85.13
60920;BME280;59039;52.108;19.942;2023-01-28T01:11:44;101419.42;;;0.75;85.11
60920;BME280;59039;52.108;19.942;2023-01-28T01:14:20;101420.25;;;0.77;84.98
60920;BME280;59039;52.108;19.942;2023-01-28T01:16:48;101419.80;;;0.78;84.97
60920;BME280;59039;52.108;19.942;2023-01-28T01:19:16;101419.95;;;0.80;85.03
60920;BME280;59039;52.108;19.942;2023-01-28T01:21:55;101417.85;;;0.79;85.01
60920;BME280;59039;52.108;19.942;2023-01-28T01:24:41;101413.89;;;0.79;84.96
60920;BME280;59039;52.108;19.942;2023-01-28T01:27:06;101414.73;;;0.80;84.95
60920;BME280;59039;52.108;19.942;2023-01-28T01:29:36;101416.38;;;0.79;84.76
60920;BME280;59039;52.108;19.942;2023-01-28T01:32:05;101414.61;;;0.79;84.85
60920;BME280;59039;52.108;19.942;2023-01-28T01:34:33;101412.75;;;0.81;84.84
60920;BME280;59039;52.108;19.942;2023-01-28T01:39:39;101411.05;;;0.83;84.87
60920;BME280;59039;52.108;19.942;2023-01-28T01:42:07;101413.04;;;0.82;84.81
60920;BME280;59039;52.108;19.942;2023-01-28T01:45:12;101414.57;;;0.84;84.79
60920;BME280;59039;52.108;19.942;2023-01-28T01:48:03;101413.95;;;0.86;84.89
60920;BME280;59039;52.108;19.942;2023-01-28T01:50:42;101420.46;;;0.88;84.77
60920;BME280;59039;52.108;19.942;2023-01-28T01:53:13;101419.68;;;0.90;84.78
60920;BME280;59039;52.108;19.942;2023-01-28T01:55:44;101419.04;;;0.92;84.60
60920;BME280;59039;52.108;19.942;2023-01-28T01:58:14;101415.25;;;0.93;84.62
60920;BME280;59039;52.108;19.942;2023-01-28T02:00:42;101417.52;;;0.94;84.74
60920;BME280;59039;52.108;19.942;2023-01-28T02:03:09;101420.79;;;0.93;84.79
60920;BME280;59039;52.108;19.942;2023-01-28T02:05:36;101419.10;;;0.91;84.61
60920;BME280;59039;52.108;19.942;2023-01-28T02:08:02;101420.66;;;0.92;84.70
60920;BME280;59039;52.108;19.942;2023-01-28T02:10:31;101421.15;;;0.93;84.65
60920;BME280;59039;52.108;19.942;2023-01-28T02:15:58;101423.75;;;0.86;84.66
60920;BME280;59039;52.108;19.942;2023-01-28T02:18:27;101426.29;;;0.81;84.75
60920;BME280;59039;52.108;19.942;2023-01-28T02:27:02;101423.98;;;0.81;84.74
60920;BME280;59039;52.108;19.942;2023-01-28T02:29:37;101426.19;;;0.79;84.55
60920;BME280;59039;52.108;19.942;2023-01-28T02:35:25;101432.02;;;0.77;84.82
60920;BME280;59039;52.108;19.942;2023-01-28T02:38:14;101434.23;;;0.75;84.64
60920;BME280;59039;52.108;19.942;2023-01-28T02:40:50;101431.56;;;0.75;84.80
60920;BME280;59039;52.108;19.942;2023-01-28T02:43:16;101434.07;;;0.75;84.84
60920;BME280;59039;52.108;19.942;2023-01-28T02:45:42;101436.71;;;0.75;84.78
60920;BME280;59039;52.108;19.942;2023-01-28T02:48:31;101439.86;;;0.77;84.81
60920;BME280;59039;52.108;19.942;2023-01-28T02:52:00;101437.36;;;0.77;84.83
60920;BME280;59039;52.108;19.942;2023-01-28T02:54:28;101434.87;;;0.77;85.09
60920;BME280;59039;52.108;19.942;2023-01-28T02:57:36;101433.17;;;0.79;85.09
60920;BME280;59039;52.108;19.942;2023-01-28T03:06:34;101433.83;;;0.80;84.94
60920;BME280;59039;52.108;19.942;2023-01-28T03:09:23;101432.43;;;0.79;84.93
60920;BME280;59039;52.108;19.942;2023-01-28T03:14:25;101432.18;;;0.81;84.88
60920;BME280;59039;52.108;19.942;2023-01-28T03:16:53;101434.13;;;0.82;84.98
60920;BME280;59039;52.108;19.942;2023-01-28T03:19:37;101437.67;;;0.82;85.07
60920;BME280;59039;52.108;19.942;2023-01-28T03:22:39;101436.58;;;0.82;84.83
60920;BME280;59039;52.108;19.942;2023-01-28T03:25:12;101437.03;;;0.76;84.74
60920;BME280;59039;52.108;19.942;2023-01-28T03:28:04;101439.10;;;0.74;84.87
60920;BME280;59039;52.108;19.942;2023-01-28T03:30:40;101438.20;;;0.74;84.99
60920;BME280;59039;52.108;19.942;2023-01-28T03:33:07;101440.74;;;0.73;84.97
60920;BME280;59039;52.108;19.942;2023-01-28T03:35:34;101438.55;;;0.71;84.97
60920;BME280;59039;52.108;19.942;2023-01-28T03:38:04;101438.77;;;0.69;84.92
60920;BME280;59039;52.108;19.942;2023-01-28T03:40:36;101439.65;;;0.69;85.06
60920;BME280;59039;52.108;19.942;2023-01-28T03:43:12;101439.25;;;0.71;84.95
60920;BME280;59039;52.108;19.942;2023-01-28T03:45:47;101437.05;;;0.73;84.92
60920;BME280;59039;52.108;19.942;2023-01-28T03:48:12;101439.89;;;0.72;84.97
60920;BME280;59039;52.108;19.942;2023-01-28T03:50:40;101440.05;;;0.69;84.85
60920;BME280;59039;52.108;19.942;2023-01-28T03:53:08;101438.06;;;0.69;84.86
60920;BME280;59039;52.108;19.942;2023-01-28T03:55:34;101435.05;;;0.69;84.83
60920;BME280;59039;52.108;19.942;2023-01-28T03:58:10;101432.35;;;0.69;84.97
60920;BME280;59039;52.108;19.942;2023-01-28T04:00:36;101436.44;;;0.70;84.87
60920;BME280;59039;52.108;19.942;2023-01-28T04:05:59;101435.55;;;0.69;84.88
60920;BME280;59039;52.108;19.942;2023-01-28T04:08:27;101433.18;;;0.71;84.94
60920;BME280;59039;52.108;19.942;2023-01-28T04:10:55;101429.95;;;0.71;84.83
60920;BME280;59039;52.108;19.942;2023-01-28T04:13:24;101433.00;;;0.71;84.53
60920;BME280;59039;52.108;19.942;2023-01-28T04:15:52;101435.92;;;0.69;84.55
60920;BME280;59039;52.108;19.942;2023-01-28T04:18:20;101432.83;;;0.71;84.70
60920;BME280;59039;52.108;19.942;2023-01-28T04:20:50;101432.65;;;0.71;84.68
60920;BME280;59039;52.108;19.942;2023-01-28T04:23:15;101430.07;;;0.69;84.64
60920;BME280;59039;52.108;19.942;2023-01-28T04:25:40;101431.69;;;0.68;84.52
60920;BME280;59039;52.108;19.942;2023-01-28T04:28:08;101432.87;;;0.66;84.50
60920;BME280;59039;52.108;19.942;2023-01-28T04:30:34;101439.02;;;0.64;84.68
60920;BME280;59039;52.108;19.942;2023-01-28T04:33:19;101442.72;;;0.65;84.77
60920;BME280;59039;52.108;19.942;2023-01-28T04:35:46;101447.11;;;0.66;84.96
60920;BME280;59039;52.108;19.942;2023-01-28T04:38:14;101443.95;;;0.65;84.91
60920;BME280;59039;52.108;19.942;2023-01-28T04:40:42;101447.75;;;0.64;84.93
60920;BME280;59039;52.108;19.942;2023-01-28T04:43:31;101443.93;;;0.66;84.84
60920;BME280;59039;52.108;19.942;2023-01-28T04:46:20;101443.14;;;0.68;85.13
60920;BME280;59039;52.108;19.942;2023-01-28T04:48:48;101442.14;;;0.70;85.06
60920;BME280;59039;52.108;19.942;2023-01-28T04:51:15;101444.24;;;0.70;85.07
60920;BME280;59039;52.108;19.942;2023-01-28T04:53:44;101443.83;;;0.73;85.09
60920;BME280;59039;52.108;19.942;2023-01-28T04:56:09;101446.06;;;0.74;84.97
60920;BME280;59039;52.108;19.942;2023-01-28T04:58:35;101444.77;;;0.75;84.97
60920;BME280;59039;52.108;19.942;2023-01-28T05:01:00;101442.27;;;0.75;84.89
60920;BME280;59039;52.108;19.942;2023-01-28T05:03:56;101443.09;;;0.77;84.90
60920;BME280;59039;52.108;19.942;2023-01-28T05:06:24;101449.41;;;0.79;84.84
60920;BME280;59039;52.108;19.942;2023-01-28T05:08:50;101451.33;;;0.80;84.91
60920;BME280;59039;52.108;19.942;2023-01-28T05:11:18;101454.85;;;0.81;84.56
60920;BME280;59039;52.108;19.942;2023-01-28T05:13:46;101454.50;;;0.81;84.60
60920;BME280;59039;52.108;19.942;2023-01-28T05:16:16;101455.75;;;0.81;84.63
60920;BME280;59039;52.108;19.942;2023-01-28T05:18:45;101455.40;;;0.81;84.61
60920;BME280;59039;52.108;19.942;2023-01-28T05:21:10;101455.56;;;0.81;84.46
60920;BME280;59039;52.108;19.942;2023-01-28T05:23:39;101459.36;;;0.80;84.44
60920;BME280;59039;52.108;19.942;2023-01-28T05:26:07;101454.41;;;0.79;84.38
60920;BME280;59039;52.108;19.942;2023-01-28T05:28:35;101459.41;;;0.79;84.48
60920;BME280;59039;52.108;19.942;2023-01-28T05:31:04;101460.98;;;0.79;84.44
60920;BME280;59039;52.108;19.942;2023-01-28T05:33:30;101458.46;;;0.80;84.51
60920;BME280;59039;52.108;19.942;2023-01-28T05:35:56;101464.10;;;0.82;84.42
60920;BME280;59039;52.108;19.942;2023-01-28T05:38:21;101465.30;;;0.82;84.38
60920;BME280;59039;52.108;19.942;2023-01-28T05:40:47;101462.20;;;0.85;84.35
60920;BME280;59039;52.108;19.942;2023-01-28T05:43:13;101463.17;;;0.87;84.34
60920;BME280;59039;52.108;19.942;2023-01-28T05:45:41;101464.89;;;0.88;84.38
60920;BME280;59039;52.108;19.942;2023-01-28T05:48:09;101469.69;;;0.89;84.26
60920;BME280;59039;52.108;19.942;2023-01-28T05:50:37;101470.33;;;0.90;84.26
60920;BME280;59039;52.108;19.942;2023-01-28T05:53:11;101470.65;;;0.91;84.22
60920;BME280;59039;52.108;19.942;2023-01-28T05:55:36;101473.89;;;0.91;84.21
60920;BME280;59039;52.108;19.942;2023-01-28T05:58:02;101472.47;;;0.90;84.10
60920;BME280;59039;52.108;19.942;2023-01-28T06:00:27;101469.46;;;0.90;84.12
60920;BME280;59039;52.108;19.942;2023-01-28T06:02:56;101469.84;;;0.89;84.22
60920;BME280;59039;52.108;19.942;2023-01-28T06:05:21;101473.23;;;0.89;84.29
60920;BME280;59039;52.108;19.942;2023-01-28T06:08:10;101477.54;;;0.89;84.31
60920;BME280;59039;52.108;19.942;2023-01-28T06:10:37;101480.05;;;0.89;84.32
60920;BME280;59039;52.108;19.942;2023-01-28T06:13:05;101479.58;;;0.87;84.46
60920;BME280;59039;52.108;19.942;2023-01-28T06:15:44;101487.48;;;0.86;84.48
60920;BME280;59039;52.108;19.942;2023-01-28T06:18:11;101486.67;;;0.84;84.68
60920;BME280;59039;52.108;19.942;2023-01-28T06:20:37;101484.74;;;0.83;84.71
60920;BME280;59039;52.108;19.942;2023-01-28T06:23:13;101488.09;;;0.84;84.78
60920;BME280;59039;52.108;19.942;2023-01-28T06:25:44;101489.61;;;0.86;84.82
60920;BME280;59039;52.108;19.942;2023-01-28T06:28:12;101487.21;;;0.88;84.81
60920;BME280;59039;52.108;19.942;2023-01-28T06:33:19;101493.02;;;0.85;84.88
60920;BME280;59039;52.108;19.942;2023-01-28T06:35:45;101495.04;;;0.84;84.82
60920;BME280;59039;52.108;19.942;2023-01-28T06:38:11;101496.52;;;0.83;84.70
60920;BME280;59039;52.108;19.942;2023-01-28T06:40:37;101498.02;;;0.81;84.67
60920;BME280;59039;52.108;19.942;2023-01-28T06:43:03;101500.85;;;0.82;84.66
60920;BME280;59039;52.108;19.942;2023-01-28T06:45:30;101505.97;;;0.83;84.72
60920;BME280;59039;52.108;19.942;2023-01-28T06:47:58;101503.80;;;0.84;84.60
60920;BME280;59039;52.108;19.942;2023-01-28T06:50:24;101503.89;;;0.86;84.64
60920;BME280;59039;52.108;19.942;2023-01-28T06:52:53;101507.58;;;0.88;84.57
60920;BME280;59039;52.108;19.942;2023-01-28T06:55:28;101510.31;;;0.90;84.63
60920;BME280;59039;52.108;19.942;2023-01-28T06:58:31;101516.52;;;0.91;84.54
60920;BME280;59039;52.108;19.942;2023-01-28T07:00:56;101519.87;;;0.92;84.56
60920;BME280;59039;52.108;19.942;2023-01-28T07:03:26;101518.27;;;0.92;84.56
60920;BME280;59039;52.108;19.942;2023-01-28T07:05:52;101518.27;;;0.92;84.57
60920;BME280;59039;52.108;19.942;2023-01-28T07:08:23;101524.30;;;0.93;84.48
60920;BME280;59039;52.108;19.942;2023-01-28T07:10:51;101523.02;;;0.94;84.53
60920;BME280;59039;52.108;19.942;2023-01-28T07:13:26;101525.42;;;0.95;84.58
60920;BME280;59039;52.108;19.942;2023-01-28T07:15:51;101526.71;;;0.95;84.56
60920;BME280;59039;52.108;19.942;2023-01-28T07:18:20;101524.99;;;0.93;84.64
60920;BME280;59039;52.108;19.942;2023-01-28T07:20:45;101529.52;;;0.92;84.64
60920;BME280;59039;52.108;19.942;2023-01-28T07:23:37;101533.74;;;0.93;84.65
60920;BME280;59039;52.108;19.942;2023-01-28T07:26:02;101534.33;;;0.96;84.68
60920;BME280;59039;52.108;19.942;2023-01-28T07:28:49;101534.08;;;0.98;84.70
60920;BME280;59039;52.108;19.942;2023-01-28T07:31:14;101535.26;;;0.99;84.54
60920;BME280;59039;52.108;19.942;2023-01-28T07:33:39;101536.08;;;0.97;84.23
60920;BME280;59039;52.108;19.942;2023-01-28T07:36:25;101537.56;;;0.95;84.41
60920;BME280;59039;52.108;19.942;2023-01-28T07:38:51;101538.13;;;0.95;84.47
60920;BME280;59039;52.108;19.942;2023-01-28T07:41:44;101541.41;;;0.93;84.20
60920;BME280;59039;52.108;19.942;2023-01-28T07:44:09;101542.05;;;0.90;84.37
60920;BME280;59039;52.108;19.942;2023-01-28T07:46:34;101541.84;;;0.91;84.57
60920;BME280;59039;52.108;19.942;2023-01-28T07:49:00;101539.45;;;0.93;84.50
60920;BME280;59039;52.108;19.942;2023-01-28T07:51:28;101540.42;;;0.95;84.46
60920;BME280;59039;52.108;19.942;2023-01-28T07:53:53;101541.11;;;0.96;84.48
60920;BME280;59039;52.108;19.942;2023-01-28T07:56:21;101544.07;;;0.97;84.38
60920;BME280;59039;52.108;19.942;2023-01-28T07:58:50;101542.19;;;1.00;84.38
60920;BME280;59039;52.108;19.942;2023-01-28T08:01:23;101541.77;;;1.01;84.37
60920;BME280;59039;52.108;19.942;2023-01-28T08:04:11;101538.89;;;1.02;84.29
60920;BME280;59039;52.108;19.942;2023-01-28T08:06:39;101536.77;;;1.01;84.12
60920;BME280;59039;52.108;19.942;2023-01-28T08:09:05;101534.80;;;1.01;84.27
60920;BME280;59039;52.108;19.942;2023-01-28T08:11:31;101534.80;;;1.01;84.22
60920;BME280;59039;52.108;19.942;2023-01-28T08:14:00;101532.17;;;1.00;84.01
60920;BME280;59039;52.108;19.942;2023-01-28T08:16:29;101532.60;;;0.99;84.04
60920;BME280;59039;52.108;19.942;2023-01-28T08:18:57;101534.96;;;0.98;83.99
60920;BME280;59039;52.108;19.942;2023-01-28T08:21:34;101530.31;;;0.98;84.06
60920;BME280;59039;52.108;19.942;2023-01-28T08:24:10;101530.14;;;0.98;84.08
60920;BME280;59039;52.108;19.942;2023-01-28T08:26:35;101532.84;;;0.97;83.99
60920;BME280;59039;52.108;19.942;2023-01-28T08:29:21;101532.41;;;0.95;83.92
60920;BME280;59039;52.108;19.942;2023-01-28T08:32:07;101535.35;;;0.93;83.91
60920;BME280;59039;52.108;19.942;2023-01-28T08:34:39;101535.02;;;0.92;84.06
60920;BME280;59039;52.108;19.942;2023-01-28T08:37:46;101535.27;;;0.91;83.93
60920;BME280;59039;52.108;19.942;2023-01-28T08:40:11;101538.72;;;0.89;84.07
60920;BME280;59039;52.108;19.942;2023-01-28T08:42:36;101540.32;;;0.90;84.05
60920;BME280;59039;52.108;19.942;2023-01-28T08:45:02;101541.35;;;0.90;84.04
60920;BME280;59039;52.108;19.942;2023-01-28T08:47:28;101538.77;;;0.92;84.13
60920;BME280;59039;52.108;19.942;2023-01-28T08:50:00;101541.20;;;0.94;84.08
60920;BME280;59039;52.108;19.942;2023-01-28T08:52:26;101545.01;;;0.96;83.99
60920;BME280;59039;52.108;19.942;2023-01-28T08:54:54;101541.31;;;0.95;83.86
60920;BME280;59039;52.108;19.942;2023-01-28T08:57:23;101543.48;;;0.95;83.93
60920;BME280;59039;52.108;19.942;2023-01-28T09:00:08;101549.85;;;0.96;83.97
60920;BME280;59039;52.108;19.942;2023-01-28T09:02:34;101551.59;;;0.97;83.76
60920;BME280;59039;52.108;19.942;2023-01-28T09:05:07;101557.02;;;0.95;83.73
60920;BME280;59039;52.108;19.942;2023-01-28T09:07:36;101556.04;;;0.93;83.68
60920;BME280;59039;52.108;19.942;2023-01-28T09:10:08;101558.40;;;0.92;83.62
60920;BME280;59039;52.108;19.942;2023-01-28T09:12:57;101560.91;;;0.92;83.62
60920;BME280;59039;52.108;19.942;2023-01-28T09:15:45;101561.64;;;0.92;83.68
60920;BME280;59039;52.108;19.942;2023-01-28T09:18:13;101567.48;;;0.93;83.93
60920;BME280;59039;52.108;19.942;2023-01-28T09:20:39;101565.08;;;0.95;83.96
60920;BME280;59039;52.108;19.942;2023-01-28T09:23:25;101565.77;;;0.95;83.88
60920;BME280;59039;52.108;19.942;2023-01-28T09:26:00;101567.30;;;0.97;83.87
60920;BME280;59039;52.108;19.942;2023-01-28T09:28:31;101567.30;;;0.97;83.89
60920;BME280;59039;52.108;19.942;2023-01-28T09:31:04;101572.60;;;0.98;83.79
60920;BME280;59039;52.108;19.942;2023-01-28T09:33:30;101574.72;;;0.98;83.72
60920;BME280;59039;52.108;19.942;2023-01-28T09:36:06;101573.85;;;0.98;83.87
60920;BME280;59039;52.108;19.942;2023-01-28T09:38:36;101574.70;;;0.99;83.70
60920;BME280;59039;52.108;19.942;2023-01-28T09:41:10;101575.20;;;1.00;83.89
60920;BME280;59039;52.108;19.942;2023-01-28T09:43:46;101579.09;;;1.01;83.93
60920;BME280;59039;52.108;19.942;2023-01-28T09:46:17;101576.56;;;1.01;83.84
60920;BME280;59039;52.108;19.942;2023-01-28T09:48:45;101576.17;;;1.02;83.73
60920;BME280;59039;52.108;19.942;2023-01-28T09:51:45;101576.34;;;1.02;83.59
60920;BME280;59039;52.108;19.942;2023-01-28T09:54:23;101576.02;;;1.01;83.48
60920;BME280;59039;52.108;19.942;2023-01-28T09:56:56;101575.63;;;1.03;83.73
60920;BME280;59039;52.108;19.942;2023-01-28T09:59:27;101573.86;;;1.02;83.64
60920;BME280;59039;52.108;19.942;2023-01-28T10:10:35;101571.87;;;1.03;83.73
60920;BME280;59039;52.108;19.942;2023-01-28T10:16:02;101564.32;;;1.00;83.72
60920;BME280;59039;52.108;19.942;2023-01-28T10:18:45;101564.16;;;0.99;83.56
60920;BME280;59039;52.108;19.942;2023-01-28T10:21:54;101561.94;;;1.01;83.72
60920;BME280;59039;52.108;19.942;2023-01-28T10:24:37;101560.06;;;1.03;83.53
60920;BME280;59039;52.108;19.942;2023-01-28T10:27:22;101560.09;;;1.03;83.30
60920;BME280;59039;52.108;19.942;2023-01-28T10:30:30;101554.10;;;1.01;83.33
60920;BME280;59039;52.108;19.942;2023-01-28T10:33:19;101557.67;;;1.01;83.60
60920;BME280;59039;52.108;19.942;2023-01-28T10:35:48;101551.63;;;1.00;83.63
60920;BME280;59039;52.108;19.942;2023-01-28T10:38:20;101547.09;;;1.02;83.76
60920;BME280;59039;52.108;19.942;2023-01-28T10:40:48;101547.58;;;1.03;83.66
60920;BME280;59039;52.108;19.942;2023-01-28T10:43:19;101543.27;;;1.04;83.82
60920;BME280;59039;52.108;19.942;2023-01-28T10:48:34;101533.88;;;1.06;83.62
60920;BME280;59039;52.108;19.942;2023-01-28T10:51:02;101537.23;;;1.08;83.57
60920;BME280;59039;52.108;19.942;2023-01-28T10:53:37;101536.21;;;1.10;83.69
60920;BME280;59039;52.108;19.942;2023-01-28T10:56:10;101537.02;;;1.12;83.64
60920;BME280;59039;52.108;19.942;2023-01-28T11:04:43;101542.05;;;1.15;83.46
60920;BME280;59039;52.108;19.942;2023-01-28T11:07:37;101541.10;;;1.17;83.40
60920;BME280;59039;52.108;19.942;2023-01-28T11:10:23;101539.45;;;1.18;83.24
60920;BME280;59039;52.108;19.942;2023-01-28T11:13:03;101541.90;;;1.19;83.10
60920;BME280;59039;52.108;19.942;2023-01-28T11:15:32;101537.25;;;1.19;82.97
60920;BME280;59039;52.108;19.942;2023-01-28T11:18:00;101536.17;;;1.19;82.72
60920;BME280;59039;52.108;19.942;2023-01-28T11:20:33;101532.86;;;1.17;82.69
60920;BME280;59039;52.108;19.942;2023-01-28T11:23:02;101530.19;;;1.17;82.93
60920;BME280;59039;52.108;19.942;2023-01-28T11:25:36;101527.98;;;1.19;82.87
60920;BME280;59039;52.108;19.942;2023-01-28T11:28:16;101525.20;;;1.21;83.02
60920;BME280;59039;52.108;19.942;2023-01-28T11:31:02;101519.98;;;1.22;83.06
60920;BME280;59039;52.108;19.942;2023-01-28T11:33:57;101520.98;;;1.23;82.86
60920;BME280;59039;52.108;19.942;2023-01-28T11:36:35;101519.71;;;1.24;82.65
60920;BME280;59039;52.108;19.942;2023-01-28T11:39:17;101516.24;;;1.26;82.86
60920;BME280;59039;52.108;19.942;2023-01-28T11:42:10;101515.27;;;1.28;82.73
60920;BME280;59039;52.108;19.942;2023-01-28T11:44:36;101512.36;;;1.29;82.35
60920;BME280;59039;52.108;19.942;2023-01-28T11:47:20;101512.04;;;1.28;82.31
60920;BME280;59039;52.108;19.942;2023-01-28T11:52:43;101515.89;;;1.26;82.40
60920;BME280;59039;52.108;19.942;2023-01-28T12:00:59;101518.02;;;1.22;81.98
60920;BME280;59039;52.108;19.942;2023-01-28T12:09:57;101516.33;;;1.20;81.97
60920;BME280;59039;52.108;19.942;2023-01-28T12:20:57;101510.14;;;1.18;82.07
60920;BME280;59039;52.108;19.942;2023-01-28T12:29:20;101504.23;;;1.19;81.66
60920;BME280;59039;52.108;19.942;2023-01-28T12:40:04;101503.66;;;1.23;82.07
60920;BME280;59039;52.108;19.942;2023-01-28T12:43:18;101505.09;;;1.23;81.58
60920;BME280;59039;52.108;19.942;2023-01-28T12:45:54;101507.45;;;1.22;81.53
60920;BME280;59039;52.108;19.942;2023-01-28T12:49:07;101513.49;;;1.23;81.39
60920;BME280;59039;52.108;19.942;2023-01-28T12:51:46;101518.80;;;1.24;81.62
60920;BME280;59039;52.108;19.942;2023-01-28T12:56:53;101515.31;;;1.27;81.78
60920;BME280;59039;52.108;19.942;2023-01-28T13:01:56;101519.69;;;1.29;81.32
60920;BME280;59039;52.108;19.942;2023-01-28T13:04:40;101517.95;;;1.28;81.57
60920;BME280;59039;52.108;19.942;2023-01-28T13:07:14;101517.86;;;1.30;81.71
60920;BME280;59039;52.108;19.942;2023-01-28T13:09:48;101519.27;;;1.30;81.68
60920;BME280;59039;52.108;19.942;2023-01-28T13:12:19;101520.10;;;1.31;81.62
60920;BME280;59039;52.108;19.942;2023-01-28T13:14:46;101517.60;;;1.31;81.51
60920;BME280;59039;52.108;19.942;2023-01-28T13:17:25;101514.19;;;1.32;81.52
60920;BME280;59039;52.108;19.942;2023-01-28T13:19:54;101514.09;;;1.34;81.61
60920;BME280;59039;52.108;19.942;2023-01-28T13:22:33;101517.27;;;1.35;81.35
60920;BME280;59039;52.108;19.942;2023-01-28T13:25:18;101516.39;;;1.35;81.17
60920;BME280;59039;52.108;19.942;2023-01-28T13:27:57;101518.22;;;1.34;80.97
60920;BME280;59039;52.108;19.942;2023-01-28T13:30:28;101519.45;;;1.34;81.17
60920;BME280;59039;52.108;19.942;2023-01-28T13:33:01;101521.26;;;1.34;80.96
60920;BME280;59039;52.108;19.942;2023-01-28T13:35:33;101521.67;;;1.32;80.99
60920;BME280;59039;52.108;19.942;2023-01-28T13:38:04;101523.61;;;1.33;81.09
60920;BME280;59039;52.108;19.942;2023-01-28T13:40:31;101524.63;;;1.34;81.01
60920;BME280;59039;52.108;19.942;2023-01-28T13:43:03;101521.02;;;1.35;81.16
60920;BME280;59039;52.108;19.942;2023-01-28T13:45:29;101518.48;;;1.35;81.03
60920;BME280;59039;52.108;19.942;2023-01-28T13:48:17;101517.94;;;1.36;80.98
60920;BME280;59039;52.108;19.942;2023-01-28T13:50:45;101523.86;;;1.35;80.86
60920;BME280;59039;52.108;19.942;2023-01-28T13:56:05;101521.15;;;1.36;80.64
60920;BME280;59039;52.108;19.942;2023-01-28T14:01:36;101518.39;;;1.38;80.70
60920;BME280;59039;52.108;19.942;2023-01-28T14:13:06;101527.05;;;1.36;80.12
60920;BME280;59039;52.108;19.942;2023-01-28T14:16:08;101522.27;;;1.35;80.41
60920;BME280;59039;52.108;19.942;2023-01-28T14:18:38;101523.73;;;1.34;80.58
60920;BME280;59039;52.108;19.942;2023-01-28T14:21:14;101530.71;;;1.34;80.80
60920;BME280;59039;52.108;19.942;2023-01-28T14:23:47;101528.61;;;1.33;80.81
60920;BME280;59039;52.108;19.942;2023-01-28T14:29:06;101529.22;;;1.31;80.57
60920;BME280;59039;52.108;19.942;2023-01-28T14:31:38;101526.91;;;1.31;80.39
60920;BME280;59039;52.108;19.942;2023-01-28T14:34:22;101521.98;;;1.30;79.98
60920;BME280;59039;52.108;19.942;2023-01-28T14:36:53;101517.51;;;1.30;79.87
60920;BME280;59039;52.108;19.942;2023-01-28T14:39:26;101515.70;;;1.30;80.04
60920;BME280;59039;52.108;19.942;2023-01-28T14:42:03;101518.48;;;1.32;80.08
60920;BME280;59039;52.108;19.942;2023-01-28T14:44:34;101516.89;;;1.31;79.88
60920;BME280;59039;52.108;19.942;2023-01-28T14:47:23;101518.31;;;1.31;80.10
60920;BME280;59039;52.108;19.942;2023-01-28T14:55:25;101520.11;;;1.31;80.20
60920;BME280;59039;52.108;19.942;2023-01-28T14:57:56;101525.11;;;1.31;79.68
60920;BME280;59039;52.108;19.942;2023-01-28T15:00:30;101529.55;;;1.32;79.71
60920;BME280;59039;52.108;19.942;2023-01-28T15:02:56;101529.14;;;1.33;80.11
60920;BME280;59039;52.108;19.942;2023-01-28T15:05:28;101531.94;;;1.34;80.02
60920;BME280;59039;52.108;19.942;2023-01-28T15:07:54;101537.09;;;1.35;79.76
60920;BME280;59039;52.108;19.942;2023-01-28T15:10:35;101537.48;;;1.34;78.96
60920;BME280;59039;52.108;19.942;2023-01-28T15:13:21;101535.75;;;1.33;77.57
60920;BME280;59039;52.108;19.942;2023-01-28T15:15:51;101536.40;;;1.31;78.09
60920;BME280;59039;52.108;19.942;2023-01-28T15:18:21;101542.13;;;1.30;78.94